Time;durP1;ratioP1;P1;durP2;ratioP2;P2;SDS_P1;SDS_P2;PMS_P1;PMS_P2;Temp;Humidity;BMP_temperature;BMP_pressure;BME280_temperature;BME280_humidity;BME280_pressure;Samples;Min_cycle;Max_cycle;Signal;HPM_P1;HPM_P2
2023/06/07 00:00:20;;;;;;;20.75;9.70;;;19.30;95.60;;;;;;4200114;28;20128;-56
2023/06/07 00:02:22;;;;;;;24.83;9.55;;;19.10;95.70;;;;;;4200329;28;20060;-57
2023/06/07 00:04:45;;;;;;;25.77;8.18;;;19.10;96.10;;;;;;4198966;28;20124;-57
2023/06/07 00:06:47;;;;;;;29.80;10.05;;;19.20;95.70;;;;;;4199721;28;20483;-57
2023/06/07 00:08:49;;;;;;;21.13;9.13;;;19.10;95.90;;;;;;4200040;28;20482;-57
2023/06/07 00:10:51;;;;;;;20.67;9.32;;;19.00;95.90;;;;;;4200333;28;20128;-57
2023/06/07 00:12:54;;;;;;;20.83;9.68;;;18.90;96.10;;;;;;4199974;28;20044;-57
2023/06/07 00:14:56;;;;;;;22.23;9.93;;;18.90;96.00;;;;;;4199031;28;20065;-57
2023/06/07 00:16:58;;;;;;;23.48;10.13;;;18.90;96.10;;;;;;4199787;28;20052;-56
2023/06/07 00:19:01;;;;;;;23.05;10.57;;;18.80;96.20;;;;;;4199746;28;20048;-57
2023/06/07 00:21:04;;;;;;;21.02;10.73;;;18.80;96.10;;;;;;4199721;28;20044;-57
2023/06/07 00:23:06;;;;;;;25.98;10.40;;;18.70;96.10;;;;;;4199507;28;20139;-57
2023/06/07 00:25:09;;;;;;;28.52;11.60;;;18.60;96.50;;;;;;4198681;28;20048;-58
2023/06/07 00:27:11;;;;;;;26.58;11.00;;;18.50;96.60;;;;;;4210118;28;20500;-57
2023/06/07 00:29:14;;;;;;;29.58;11.45;;;18.60;96.40;;;;;;4216331;28;20123;-56
2023/06/07 00:31:16;;;;;;;25.42;11.18;;;18.60;96.60;;;;;;4216211;28;20051;-56
2023/06/07 00:33:20;;;;;;;23.73;11.40;;;18.50;96.50;;;;;;4216212;28;20040;-57
2023/06/07 00:35:22;;;;;;;29.05;11.00;;;18.50;96.50;;;;;;4198554;28;20064;-55
2023/06/07 00:37:26;;;;;;;24.40;11.38;;;18.40;96.70;;;;;;4199372;28;20079;-56
2023/06/07 00:39:28;;;;;;;24.30;11.77;;;18.40;96.80;;;;;;4214512;28;20130;-57
2023/06/07 00:41:30;;;;;;;29.95;12.02;;;18.30;96.80;;;;;;4215777;28;20051;-57
2023/06/07 00:43:32;;;;;;;27.98;10.20;;;18.30;96.80;;;;;;4198084;28;20052;-58
2023/06/07 00:45:34;;;;;;;29.50;12.40;;;18.30;97.00;;;;;;4215213;28;20441;-57
2023/06/07 00:47:38;;;;;;;23.98;11.88;;;18.30;97.00;;;;;;4216375;28;20044;-55
2023/06/07 00:49:42;;;;;;;26.02;11.05;;;18.20;97.00;;;;;;4215081;28;20048;-55
2023/06/07 00:51:45;;;;;;;27.02;11.50;;;18.20;97.10;;;;;;4216012;28;20071;-55
2023/06/07 00:53:51;;;;;;;25.52;11.60;;;18.10;97.30;;;;;;4216024;28;20052;-56
2023/06/07 00:55:53;;;;;;;23.92;11.13;;;18.00;97.30;;;;;;4214926;28;20080;-55
2023/06/07 00:57:56;;;;;;;29.00;12.05;;;18.10;97.20;;;;;;4216647;28;20127;-56
2023/06/07 00:59:58;;;;;;;25.98;11.45;;;18.10;97.30;;;;;;4217281;28;20490;-56
2023/06/07 01:02:01;;;;;;;24.70;10.93;;;18.00;97.30;;;;;;4218204;28;20406;-60
2023/06/07 01:04:05;;;;;;;26.25;11.63;;;18.00;97.30;;;;;;4217192;28;20050;-55
2023/06/07 01:06:08;;;;;;;24.25;10.43;;;18.00;97.40;;;;;;4216858;28;20525;-55
2023/06/07 01:08:11;;;;;;;26.30;10.48;;;18.00;97.20;;;;;;4216439;28;20114;-55
2023/06/07 01:10:14;;;;;;;31.55;11.57;;;18.00;97.30;;;;;;4215754;28;20079;-55
2023/06/07 01:12:18;;;;;;;22.02;11.25;;;18.00;97.30;;;;;;4216058;28;20052;-55
2023/06/07 01:14:21;;;;;;;21.35;10.20;;;18.00;97.40;;;;;;4215699;28;20040;-55
2023/06/07 01:16:25;;;;;;;28.38;11.50;;;18.00;97.20;;;;;;4215223;28;20504;-54
2023/06/07 01:18:28;;;;;;;21.37;11.93;;;18.00;97.30;;;;;;4216444;28;20056;-56
2023/06/07 01:20:30;;;;;;;26.48;12.13;;;17.90;97.40;;;;;;4216653;28;20432;-54
2023/06/07 01:22:33;;;;;;;27.92;12.43;;;17.90;97.30;;;;;;4215805;28;20077;-54
2023/06/07 01:24:39;;;;;;;25.45;12.45;;;17.90;97.30;;;;;;4215311;28;20127;-55
2023/06/07 01:26:41;;;;;;;29.70;12.05;;;17.90;97.30;;;;;;4215050;28;20090;-57
2023/06/07 01:28:44;;;;;;;28.73;11.32;;;17.90;97.40;;;;;;4215585;28;20047;-58
2023/06/07 01:30:48;;;;;;;32.58;12.75;;;17.80;97.40;;;;;;4215421;28;20063;-57
2023/06/07 01:32:51;;;;;;;29.35;11.38;;;17.70;97.60;;;;;;4215397;28;20044;-56
2023/06/07 01:34:54;;;;;;;26.40;11.82;;;17.70;97.60;;;;;;4213641;28;20061;-56
2023/06/07 01:36:57;;;;;;;25.67;11.20;;;17.70;97.70;;;;;;4215114;28;20044;-57
2023/06/07 01:39:01;;;;;;;23.73;11.02;;;17.70;97.90;;;;;;4214977;28;20118;-57
2023/06/07 01:41:05;;;;;;;23.17;12.13;;;17.70;97.50;;;;;;4215470;28;20478;-56
2023/06/07 01:43:07;;;;;;;23.88;12.05;;;17.70;97.50;;;;;;4215258;28;20447;-57
2023/06/07 01:45:10;;;;;;;26.80;12.00;;;17.60;97.60;;;;;;4214491;28;20378;-57
2023/06/07 01:47:14;;;;;;;25.48;12.77;;;17.60;97.70;;;;;;4215333;28;20048;-57
2023/06/07 01:49:21;;;;;;;25.38;13.05;;;17.50;97.70;;;;;;4215605;28;20131;-57
2023/06/07 01:51:23;;;;;;;29.50;13.93;;;17.50;97.70;;;;;;4215282;28;20126;-57
2023/06/07 01:53:25;;;;;;;27.73;11.93;;;17.50;97.60;;;;;;4214912;28;20101;-60
2023/06/07 01:55:28;;;;;;;26.20;14.07;;;17.50;97.60;;;;;;4214621;28;20055;-57
2023/06/07 01:57:43;;;;;;;30.92;13.57;;;17.50;97.80;;;;;;4215547;28;20516;-57
2023/06/07 01:59:56;;;;;;;27.25;12.50;;;17.50;97.70;;;;;;4215148;28;20458;-57
2023/06/07 02:02:04;;;;;;;31.13;13.02;;;17.40;98.00;;;;;;4215337;28;20044;-57
2023/06/07 02:04:10;;;;;;;23.52;11.82;;;17.30;98.00;;;;;;4216212;28;20062;-58
2023/06/07 02:06:19;;;;;;;23.33;11.90;;;17.30;97.90;;;;;;4216313;28;20409;-58
2023/06/07 02:08:28;;;;;;;30.70;14.77;;;17.40;97.90;;;;;;4216760;28;20068;-59
2023/06/07 02:10:33;;;;;;;23.45;12.32;;;17.30;98.00;;;;;;4216402;28;20513;-58
2023/06/07 02:12:37;;;;;;;29.50;13.50;;;17.30;98.10;;;;;;4215453;28;20131;-57
2023/06/07 02:14:39;;;;;;;24.83;13.18;;;17.30;98.00;;;;;;4215091;28;20044;-58
2023/06/07 02:16:41;;;;;;;25.83;13.95;;;17.30;98.00;;;;;;4213809;28;20044;-57
2023/06/07 02:18:44;;;;;;;26.63;13.43;;;17.30;98.10;;;;;;4214077;28;20052;-57
2023/06/07 02:20:47;;;;;;;27.35;13.48;;;17.20;98.20;;;;;;4214808;28;20044;-57
2023/06/07 02:22:49;;;;;;;27.73;14.10;;;17.20;98.20;;;;;;4214513;28;20048;-55
2023/06/07 02:24:51;;;;;;;28.30;13.10;;;17.20;98.30;;;;;;4214452;28;20075;-54
2023/06/07 02:26:54;;;;;;;29.98;13.90;;;17.10;98.40;;;;;;4213951;28;20493;-54
2023/06/07 02:28:57;;;;;;;25.52;12.85;;;17.10;98.30;;;;;;4214470;28;20089;-55
2023/06/07 02:30:59;;;;;;;33.53;13.52;;;17.10;98.40;;;;;;4214679;28;20119;-55
2023/06/07 02:33:01;;;;;;;28.48;13.43;;;17.00;98.50;;;;;;4214236;28;20051;-55
2023/06/07 02:35:05;;;;;;;25.35;13.40;;;17.10;98.50;;;;;;4213515;28;20044;-55
2023/06/07 02:37:07;;;;;;;26.98;13.63;;;17.10;98.60;;;;;;4214138;28;20086;-55
2023/06/07 02:39:10;;;;;;;27.73;14.85;;;17.10;98.50;;;;;;4201770;28;20055;-56
2023/06/07 02:41:12;;;;;;;25.13;14.15;;;17.00;98.40;;;;;;4197710;28;20051;-55
2023/06/07 02:43:14;;;;;;;25.80;13.50;;;17.00;98.40;;;;;;4196605;28;20049;-60
2023/06/07 02:45:18;;;;;;;29.70;13.30;;;17.00;98.40;;;;;;4196773;28;20570;-58
2023/06/07 02:47:20;;;;;;;24.52;13.40;;;17.00;98.40;;;;;;4196930;28;20052;-58
2023/06/07 02:49:22;;;;;;;28.45;14.57;;;16.90;98.90;;;;;;4197196;28;20498;-57
2023/06/07 02:51:25;;;;;;;28.33;13.32;;;17.00;98.60;;;;;;4195228;28;20059;-64
2023/06/07 02:53:27;;;;;;;25.73;14.05;;;16.90;98.50;;;;;;4197269;28;20041;-59
2023/06/07 02:55:29;;;;;;;30.88;14.27;;;16.90;98.60;;;;;;4195001;28;20044;-58
2023/06/07 02:57:31;;;;;;;26.90;14.70;;;16.80;98.90;;;;;;4198348;28;20044;-57
2023/06/07 02:59:33;;;;;;;27.65;14.50;;;16.90;98.90;;;;;;4198834;28;20044;-57
2023/06/07 03:01:37;;;;;;;27.85;15.20;;;16.80;98.80;;;;;;4198822;28;20053;-55
2023/06/07 03:03:42;;;;;;;25.35;14.00;;;16.80;98.70;;;;;;4197718;28;20044;-62
2023/06/07 03:05:48;;;;;;;29.58;14.75;;;16.80;98.80;;;;;;4196168;28;20552;-55
2023/06/07 03:07:50;;;;;;;30.83;14.10;;;16.80;98.90;;;;;;4196760;28;20048;-55
2023/06/07 03:09:53;;;;;;;26.25;13.65;;;16.70;99.00;;;;;;4196648;28;20044;-56
2023/06/07 03:11:55;;;;;;;25.30;14.93;;;16.70;99.10;;;;;;4196648;28;20051;-57
2023/06/07 03:13:57;;;;;;;32.08;15.35;;;16.70;99.10;;;;;;4196792;28;20098;-56
2023/06/07 03:15:59;;;;;;;33.63;14.30;;;16.70;99.20;;;;;;4195520;28;20278;-54
2023/06/07 03:18:05;;;;;;;26.10;14.13;;;16.70;99.00;;;;;;4196666;28;20055;-57
2023/06/07 03:20:08;;;;;;;32.67;15.30;;;16.60;99.10;;;;;;4196333;28;20132;-56
2023/06/07 03:22:11;;;;;;;30.63;15.65;;;16.70;98.90;;;;;;4196776;28;20048;-57
2023/06/07 03:24:14;;;;;;;27.25;14.55;;;16.70;99.00;;;;;;4196221;28;20498;-58
2023/06/07 03:26:17;;;;;;;26.20;15.57;;;16.60;98.90;;;;;;4198517;28;20040;-56
2023/06/07 03:28:22;;;;;;;32.75;15.70;;;16.60;99.10;;;;;;4213126;28;20055;-57
2023/06/07 03:30:24;;;;;;;28.80;16.55;;;16.60;99.20;;;;;;4211762;28;20055;-55
2023/06/07 03:32:26;;;;;;;32.83;17.08;;;16.50;99.20;;;;;;4212964;28;20052;-58
2023/06/07 03:34:32;;;;;;;27.65;14.43;;;16.50;99.30;;;;;;4212437;28;20075;-55
2023/06/07 03:36:36;;;;;;;35.03;16.45;;;16.50;99.30;;;;;;4210322;28;20055;-58
2023/06/07 03:38:39;;;;;;;34.47;16.80;;;16.40;99.40;;;;;;4204884;28;20044;-57
2023/06/07 03:40:41;;;;;;;33.45;17.02;;;16.40;99.60;;;;;;4194770;28;20107;-57
2023/06/07 03:42:43;;;;;;;36.75;17.73;;;16.40;99.80;;;;;;4196493;28;20063;-58
2023/06/07 03:44:45;;;;;;;28.98;15.30;;;16.40;99.60;;;;;;4196557;28;20139;-58
2023/06/07 03:46:47;;;;;;;37.55;18.13;;;16.40;99.40;;;;;;4195926;28;20428;-57
2023/06/07 03:48:50;;;;;;;28.02;16.00;;;16.40;99.90;;;;;;4196718;28;20068;-58
2023/06/07 03:50:55;;;;;;;28.33;16.60;;;16.30;99.80;;;;;;4196918;28;20072;-56
2023/06/07 03:52:57;;;;;;;32.58;16.13;;;16.30;99.90;;;;;;4196999;28;20074;-57
2023/06/07 03:54:59;;;;;;;32.95;16.48;;;16.30;99.80;;;;;;4196800;28;20410;-56
2023/06/07 03:57:01;;;;;;;30.27;16.10;;;16.30;99.80;;;;;;4195752;28;20044;-57
2023/06/07 03:59:03;;;;;;;32.22;17.23;;;16.30;99.70;;;;;;4195360;28;20051;-60
2023/06/07 04:01:06;;;;;;;33.83;17.02;;;16.30;99.80;;;;;;4196948;28;20045;-57
2023/06/07 04:03:08;;;;;;;35.05;18.15;;;16.30;99.70;;;;;;4196700;28;20132;-57
2023/06/07 04:05:10;;;;;;;32.33;16.40;;;16.30;99.90;;;;;;4196404;28;20041;-58
2023/06/07 04:07:16;;;;;;;29.73;17.13;;;16.30;99.80;;;;;;4196465;28;20478;-57
2023/06/07 04:09:19;;;;;;;32.60;17.67;;;16.30;99.90;;;;;;4196631;28;20545;-58
2023/06/07 04:11:22;;;;;;;32.00;17.45;;;16.30;99.90;;;;;;4196767;28;20068;-57
2023/06/07 04:13:24;;;;;;;38.13;17.70;;;16.20;99.90;;;;;;4195794;28;20438;-57
2023/06/07 04:15:26;;;;;;;30.60;16.52;;;16.20;99.90;;;;;;4195642;28;20057;-58
2023/06/07 04:17:28;;;;;;;30.17;17.90;;;16.20;99.90;;;;;;4196009;28;20049;-58
2023/06/07 04:19:30;;;;;;;34.90;16.73;;;16.20;99.90;;;;;;4196932;28;20044;-57
2023/06/07 04:21:32;;;;;;;37.63;18.85;;;16.20;99.90;;;;;;4196457;28;20041;-57
2023/06/07 04:23:36;;;;;;;33.00;17.88;;;16.20;99.90;;;;;;4196752;28;20099;-58
2023/06/07 04:25:39;;;;;;;36.75;18.80;;;16.20;99.90;;;;;;4195720;28;20064;-58
2023/06/07 04:27:46;;;;;;;36.33;19.38;;;16.20;99.90;;;;;;4211587;28;20055;-56
2023/06/07 04:29:49;;;;;;;36.53;20.13;;;16.20;99.90;;;;;;4213270;28;20048;-57
2023/06/07 04:31:56;;;;;;;35.65;20.65;;;16.20;99.90;;;;;;4213319;28;20052;-57
2023/06/07 04:34:01;;;;;;;31.58;18.27;;;16.20;99.90;;;;;;4213220;28;20048;-58
2023/06/07 04:36:04;;;;;;;39.00;20.13;;;16.20;99.90;;;;;;4212452;28;20122;-57
2023/06/07 04:38:11;;;;;;;39.97;20.35;;;16.10;99.90;;;;;;4209609;28;20110;-58
2023/06/07 04:40:15;;;;;;;29.05;19.25;;;16.20;99.90;;;;;;4196600;28;20045;-57
2023/06/07 04:42:17;;;;;;;35.35;18.08;;;16.10;99.90;;;;;;4197772;28;20040;-57
2023/06/07 04:44:28;;;;;;;40.00;19.48;;;16.10;99.90;;;;;;4198089;28;20059;-57
2023/06/07 04:46:30;;;;;;;39.60;20.67;;;16.20;99.90;;;;;;4198105;28;20110;-57
2023/06/07 04:48:40;;;;;;;33.38;19.77;;;16.20;99.90;;;;;;4198805;28;20045;-57
2023/06/07 04:50:43;;;;;;;34.28;19.23;;;16.20;99.90;;;;;;4199863;28;20083;-57
2023/06/07 04:52:49;;;;;;;38.53;21.52;;;16.00;99.90;;;;;;4200328;28;20074;-57
2023/06/07 04:54:51;;;;;;;45.38;22.88;;;16.10;99.90;;;;;;4201447;28;20051;-62
2023/06/07 04:56:56;;;;;;;30.77;19.83;;;16.10;99.90;;;;;;4200085;28;20048;-63
2023/06/07 04:58:58;;;;;;;;;;;16.10;99.90;;;;;;4201652;28;20040;-57
2023/06/07 05:01:02;;;;;;;38.60;21.10;;;16.10;99.90;;;;;;4200138;28;20030;-60
2023/06/07 05:03:13;;;;;;;35.83;19.15;;;16.10;99.90;;;;;;4199632;28;20044;-57
2023/06/07 05:05:15;;;;;;;40.92;22.42;;;16.00;99.90;;;;;;4199057;28;20102;-57
2023/06/07 05:07:18;;;;;;;33.55;19.45;;;16.10;99.90;;;;;;4198600;28;20053;-58
2023/06/07 05:09:20;;;;;;;42.25;24.60;;;16.10;99.90;;;;;;4199302;28;20082;-63
2023/06/07 05:11:23;;;;;;;47.58;24.10;;;16.00;99.90;;;;;;4199086;28;20052;-58
2023/06/07 05:13:26;;;;;;;46.78;24.83;;;16.00;99.90;;;;;;4198986;28;20119;-57
2023/06/07 05:15:30;;;;;;;37.72;21.80;;;16.00;99.90;;;;;;4198399;28;20045;-58
2023/06/07 05:17:34;;;;;;;41.05;23.38;;;16.00;99.90;;;;;;4197910;28;20609;-57
2023/06/07 05:19:36;;;;;;;51.28;24.13;;;16.00;99.90;;;;;;4199036;28;20052;-56
2023/06/07 05:21:38;;;;;;;41.22;23.48;;;16.00;99.90;;;;;;4199068;28;20054;-56
2023/06/07 05:23:41;;;;;;;47.10;24.42;;;16.00;99.90;;;;;;4199129;28;20071;-58
2023/06/07 05:25:44;;;;;;;48.17;25.17;;;16.00;99.90;;;;;;4199828;28;20055;-57
2023/06/07 05:27:49;;;;;;;47.65;23.98;;;16.10;99.90;;;;;;4216650;28;20481;-60
2023/06/07 05:30:12;;;;;;;36.88;21.25;;;16.20;99.90;;;;;;4217901;28;20044;-58
2023/06/07 05:32:15;;;;;;;53.42;23.67;;;16.20;99.90;;;;;;4217198;28;20047;-57
2023/06/07 05:34:17;;;;;;;41.38;24.50;;;16.20;99.90;;;;;;4215611;28;20040;-57
2023/06/07 05:36:20;;;;;;;42.58;22.63;;;16.20;99.90;;;;;;4214496;28;20118;-58
2023/06/07 05:38:22;;;;;;;41.42;22.65;;;16.20;99.90;;;;;;4209934;28;20069;-54
2023/06/07 05:40:24;;;;;;;43.72;22.52;;;16.30;99.90;;;;;;4198841;28;20478;-55
2023/06/07 05:42:26;;;;;;;46.40;23.35;;;16.30;99.90;;;;;;4198664;28;20052;-55
2023/06/07 05:44:29;;;;;;;33.03;20.25;;;16.30;99.90;;;;;;4198142;28;20410;-55
2023/06/07 05:46:32;;;;;;;44.83;23.65;;;16.30;99.90;;;;;;4196682;28;20068;-55
2023/06/07 05:48:34;;;;;;;41.58;22.42;;;16.40;99.90;;;;;;4198592;28;20053;-54
2023/06/07 05:50:36;;;;;;;54.95;25.40;;;16.40;99.90;;;;;;4198375;28;20118;-59
2023/06/07 05:52:40;;;;;;;48.75;21.80;;;16.40;99.90;;;;;;4198399;28;20045;-57
2023/06/07 05:54:49;;;;;;;45.03;24.75;;;16.50;99.90;;;;;;4197529;28;20048;-58
2023/06/07 05:56:51;;;;;;;36.95;19.70;;;16.50;99.90;;;;;;4197489;28;20441;-57
2023/06/07 05:58:55;;;;;;;35.60;19.90;;;16.60;99.90;;;;;;4198010;28;20036;-58
2023/06/07 06:00:58;;;;;;;42.85;22.45;;;16.70;99.90;;;;;;4198366;28;20047;-56
2023/06/07 06:03:01;;;;;;;47.58;22.95;;;16.80;99.90;;;;;;4198269;28;20072;-58
2023/06/07 06:05:06;;;;;;;39.30;22.27;;;16.90;99.90;;;;;;4198192;28;20123;-57
2023/06/07 06:07:09;;;;;;;41.47;21.23;;;17.00;99.70;;;;;;4197351;28;20094;-57
2023/06/07 06:09:12;;;;;;;42.90;22.58;;;17.20;99.40;;;;;;4198309;28;20398;-57
2023/06/07 06:11:14;;;;;;;31.90;17.88;;;17.30;99.00;;;;;;4198059;28;20189;-57
2023/06/07 06:13:16;;;;;;;43.78;21.88;;;17.40;98.90;;;;;;4198082;28;20076;-56
2023/06/07 06:15:19;;;;;;;44.60;21.35;;;17.50;98.50;;;;;;4198273;28;20044;-58
2023/06/07 06:17:21;;;;;;;42.67;21.08;;;17.60;98.60;;;;;;4197405;28;20128;-58
2023/06/07 06:19:25;;;;;;;47.05;20.15;;;17.60;98.40;;;;;;4198262;28;20053;-57
2023/06/07 06:21:27;;;;;;;44.35;21.23;;;17.70;98.00;;;;;;4197964;28;20052;-57
2023/06/07 06:23:29;;;;;;;42.05;20.60;;;17.70;98.10;;;;;;4198241;28;20120;-58
2023/06/07 06:25:31;;;;;;;37.20;20.13;;;17.70;98.10;;;;;;4197922;28;20045;-57
2023/06/07 06:27:34;;;;;;;39.33;19.20;;;17.70;98.20;;;;;;4210473;28;20041;-57
2023/06/07 06:29:36;;;;;;;38.25;20.77;;;17.80;98.10;;;;;;4214085;28;20072;-58
2023/06/07 06:31:39;;;;;;;43.55;20.20;;;17.90;97.70;;;;;;4214397;28;20119;-59
2023/06/07 06:33:42;;;;;;;35.72;18.38;;;18.00;97.70;;;;;;4214242;28;20052;-57
2023/06/07 06:35:46;;;;;;;52.90;20.67;;;18.00;97.40;;;;;;4214448;28;20459;-58
2023/06/07 06:37:48;;;;;;;43.38;19.88;;;18.00;97.30;;;;;;4214446;28;20048;-56
2023/06/07 06:39:51;;;;;;;50.55;20.15;;;18.10;97.30;;;;;;4198406;28;20521;-56
2023/06/07 06:41:53;;;;;;;53.28;19.33;;;18.20;97.20;;;;;;4197859;28;20048;-58
2023/06/07 06:43:56;;;;;;;44.35;18.90;;;18.10;97.20;;;;;;4197265;28;20406;-57
2023/06/07 06:45:58;;;;;;;48.63;19.08;;;18.20;96.90;;;;;;4197073;28;20071;-56
2023/06/07 06:48:00;;;;;;;42.63;19.45;;;18.20;96.90;;;;;;4197612;28;20052;-56
2023/06/07 06:50:03;;;;;;;33.53;18.88;;;18.40;96.80;;;;;;4198253;28;20446;-56
2023/06/07 06:52:17;;;;;;;60.13;18.92;;;18.40;96.80;;;;;;4199193;28;20045;-57
2023/06/07 06:54:20;;;;;;;45.78;18.70;;;18.40;96.70;;;;;;4197196;28;20138;-57
2023/06/07 06:56:23;;;;;;;39.33;18.27;;;18.30;96.70;;;;;;4196762;28;20044;-58
2023/06/07 06:58:25;;;;;;;49.70;18.70;;;18.20;96.70;;;;;;4197126;28;20051;-57
2023/06/07 07:00:27;;;;;;;32.28;17.92;;;18.20;96.90;;;;;;4197135;28;20135;-57
2023/06/07 07:02:29;;;;;;;40.78;19.20;;;18.10;96.90;;;;;;4197710;28;20393;-58
2023/06/07 07:04:31;;;;;;;37.13;18.20;;;18.20;97.30;;;;;;4197124;28;20041;-59
2023/06/07 07:06:34;;;;;;;38.15;19.30;;;18.50;97.10;;;;;;4196494;28;20119;-56
2023/06/07 07:08:44;;;;;;;51.15;18.67;;;18.60;96.60;;;;;;4197164;28;20040;-56
2023/06/07 07:10:47;;;;;;;;;;;18.90;96.40;;;;;;4198036;28;20857;-58
2023/06/07 07:12:49;;;;;;;62.33;18.40;;;19.10;96.00;;;;;;4197018;28;19925;-57
2023/06/07 07:14:51;;;;;;;56.38;18.60;;;19.10;95.60;;;;;;4196947;28;20044;-56
2023/06/07 07:16:54;;;;;;;49.30;17.40;;;19.30;95.60;;;;;;4196404;28;20048;-56
2023/06/07 07:19:02;;;;;;;57.58;17.33;;;19.50;95.30;;;;;;4197425;28;20585;-57
2023/06/07 07:21:04;;;;;;;80.05;20.98;;;19.50;95.10;;;;;;4197202;28;20114;-57
2023/06/07 07:23:07;;;;;;;87.57;20.77;;;19.70;94.70;;;;;;4197311;28;20066;-57
2023/06/07 07:25:11;;;;;;;67.28;18.75;;;19.60;94.60;;;;;;4197350;28;20055;-57
2023/06/07 07:27:14;;;;;;;49.88;16.90;;;19.60;94.60;;;;;;4206715;28;20044;-57
2023/06/07 07:29:16;;;;;;;63.33;17.88;;;19.60;94.60;;;;;;4213701;28;20444;-59
2023/06/07 07:31:18;;;;;;;39.92;17.20;;;19.90;94.50;;;;;;4213963;28;20546;-56
2023/06/07 07:33:20;;;;;;;35.45;17.17;;;19.90;94.20;;;;;;4213590;28;20047;-56
2023/06/07 07:35:22;;;;;;;41.33;15.80;;;19.90;94.10;;;;;;4213693;28;20097;-58
2023/06/07 07:37:27;;;;;;;43.03;15.82;;;20.00;94.40;;;;;;4212754;28;20052;-56
2023/06/07 07:39:31;;;;;;;38.22;16.30;;;19.90;94.10;;;;;;4198262;28;20115;-57
2023/06/07 07:41:35;;;;;;;37.00;15.25;;;19.70;94.30;;;;;;4196847;28;20101;-57
2023/06/07 07:43:37;;;;;;;36.07;15.87;;;19.60;94.30;;;;;;4197027;28;20060;-56
2023/06/07 07:45:39;;;;;;;28.45;16.52;;;19.80;94.50;;;;;;4196794;28;20048;-58
2023/06/07 07:47:43;;;;;;;33.45;16.63;;;19.70;94.50;;;;;;4194732;28;20452;-57
2023/06/07 07:49:46;;;;;;;39.22;16.48;;;19.80;94.50;;;;;;4196903;28;20098;-60
2023/06/07 07:51:48;;;;;;;65.13;17.75;;;20.00;94.40;;;;;;4197202;28;20089;-58
2023/06/07 07:53:53;;;;;;;42.40;15.57;;;20.10;94.30;;;;;;4197064;28;20387;-56
2023/06/07 07:55:56;;;;;;;40.88;15.35;;;20.10;94.30;;;;;;4196408;28;20414;-57
2023/06/07 07:58:00;;;;;;;38.97;15.27;;;20.10;94.30;;;;;;4196156;28;20453;-56
2023/06/07 08:00:04;;;;;;;51.43;16.70;;;20.30;94.20;;;;;;4197422;28;20051;-59
2023/06/07 08:02:07;;;;;;;57.65;15.68;;;20.50;94.20;;;;;;4197780;28;20064;-58
2023/06/07 08:04:09;;;;;;;42.47;14.68;;;20.80;93.80;;;;;;4197098;28;20055;-56
2023/06/07 08:06:11;;;;;;;40.90;13.63;;;21.00;93.40;;;;;;4196026;28;20056;-61
2023/06/07 08:08:15;;;;;;;23.60;12.77;;;21.10;93.20;;;;;;4196509;28;20048;-54
2023/06/07 08:10:17;;;;;;;25.42;12.05;;;21.10;93.10;;;;;;4196854;28;20107;-55
2023/06/07 08:12:19;;;;;;;32.30;12.40;;;21.20;93.00;;;;;;4196774;28;20048;-55
2023/06/07 08:14:23;;;;;;;23.60;11.57;;;21.20;92.80;;;;;;4196798;28;20402;-55
2023/06/07 08:16:25;;;;;;;26.25;10.57;;;21.30;92.70;;;;;;4195820;28;20056;-54
2023/06/07 08:18:28;;;;;;;34.50;11.57;;;21.40;92.40;;;;;;4199652;28;20048;-55
2023/06/07 08:20:30;;;;;;;25.60;10.80;;;21.30;92.40;;;;;;4210494;28;20119;-57
2023/06/07 08:22:32;;;;;;;29.27;10.10;;;21.30;92.20;;;;;;4216415;28;20052;-59
2023/06/07 08:24:34;;;;;;;25.65;9.68;;;21.40;91.80;;;;;;4215993;28;20071;-54
2023/06/07 08:26:37;;;;;;;28.75;10.30;;;21.30;91.20;;;;;;4215450;28;20225;-57
2023/06/07 08:28:40;;;;;;;26.25;9.65;;;21.40;91.60;;;;;;4213504;28;20534;-57
2023/06/07 08:30:43;;;;;;;18.88;8.75;;;21.60;91.20;;;;;;4198275;28;20123;-57
2023/06/07 08:32:46;;;;;;;21.92;9.60;;;21.70;90.90;;;;;;4214735;28;20075;-54
2023/06/07 08:34:49;;;;;;;24.65;9.50;;;21.80;91.00;;;;;;4216432;28;20048;-58
2023/06/07 08:36:51;;;;;;;22.38;9.23;;;21.70;90.80;;;;;;4215611;28;20055;-57
2023/06/07 08:38:53;;;;;;;18.92;8.50;;;21.80;90.60;;;;;;4205908;28;20079;-58
2023/06/07 08:40:56;;;;;;;26.05;9.45;;;21.80;90.50;;;;;;4199691;28;20048;-57
2023/06/07 08:42:58;;;;;;;23.52;8.13;;;21.80;90.50;;;;;;4199939;28;20048;-54
2023/06/07 08:45:00;;;;;;;23.42;8.15;;;21.90;90.60;;;;;;4199874;28;20045;-57
2023/06/07 08:47:06;;;;;;;20.58;7.65;;;22.10;90.50;;;;;;4200371;28;20082;-64
2023/06/07 08:49:11;;;;;;;20.67;8.57;;;22.10;90.10;;;;;;4202555;28;20080;-57
2023/06/07 08:51:15;;;;;;;18.23;7.65;;;22.20;90.20;;;;;;4201653;28;20474;-60
2023/06/07 08:53:20;;;;;;;;;;;22.30;90.00;;;;;;4200694;28;20445;-57
2023/06/07 08:55:25;;;;;;;19.70;8.17;;;22.30;89.70;;;;;;4199723;28;19920;-56
2023/06/07 08:57:28;;;;;;;19.48;7.40;;;22.30;90.20;;;;;;4198697;28;20098;-57
2023/06/07 08:59:30;;;;;;;26.58;8.63;;;22.30;90.00;;;;;;4199227;28;20082;-57
2023/06/07 09:01:36;;;;;;;17.17;7.85;;;22.20;90.00;;;;;;4199435;28;20128;-57
2023/06/07 09:03:40;;;;;;;27.50;8.30;;;22.30;90.00;;;;;;4199092;28;20048;-56
2023/06/07 09:05:43;;;;;;;25.05;7.85;;;22.40;90.00;;;;;;4199141;28;20045;-57
2023/06/07 09:07:45;;;;;;;16.58;7.45;;;22.40;89.60;;;;;;4197753;28;20148;-57
2023/06/07 09:09:47;;;;;;;22.75;8.00;;;22.40;89.60;;;;;;4199038;28;20473;-57
2023/06/07 09:11:52;;;;;;;24.63;7.82;;;22.40;89.50;;;;;;4198938;28;20472;-56
2023/06/07 09:13:55;;;;;;;;;;;22.30;89.50;;;;;;4199650;28;20048;-56
2023/06/07 09:15:59;;;;;;;25.55;8.10;;;22.40;89.70;;;;;;4195902;28;20251;-56
2023/06/07 09:18:04;;;;;;;28.85;8.85;;;22.50;89.60;;;;;;4207535;28;20551;-53
2023/06/07 09:20:18;;;;;;;14.32;6.72;;;22.70;88.60;;;;;;4214219;28;20044;-53
2023/06/07 09:22:23;;;;;;;14.20;7.28;;;22.70;87.70;;;;;;4211252;28;20040;-53
2023/06/07 09:24:29;;;;;;;16.38;7.47;;;22.80;87.60;;;;;;4214977;28;20533;-53
2023/06/07 09:26:38;;;;;;;17.20;7.63;;;22.90;88.00;;;;;;4210470;28;20430;-54
2023/06/07 09:28:41;;;;;;;13.48;6.88;;;22.70;88.20;;;;;;4214454;28;20040;-54
2023/06/07 09:30:52;;;;;;;19.52;7.20;;;22.90;88.90;;;;;;4215178;28;20036;-53
2023/06/07 09:32:55;;;;;;;16.00;7.35;;;23.10;87.60;;;;;;4213301;28;20036;-54
2023/06/07 09:35:12;;;;;;;14.02;6.93;;;23.20;87.50;;;;;;4212220;28;20051;-54
2023/06/07 09:37:20;;;;;;;16.60;6.93;;;23.50;86.80;;;;;;4210187;28;20474;-53
2023/06/07 09:39:23;;;;;;;14.23;6.15;;;23.60;86.90;;;;;;4215089;28;20052;-54
2023/06/07 09:41:31;;;;;;;23.60;7.28;;;23.60;86.40;;;;;;4215357;28;20040;-54
2023/06/07 09:43:45;;;;;;;19.13;7.03;;;23.70;86.20;;;;;;4215421;28;20493;-53
2023/06/07 09:45:53;;;;;;;12.93;6.10;;;23.70;85.70;;;;;;4215476;28;20048;-54
2023/06/07 09:48:02;;;;;;;11.88;6.20;;;23.70;86.00;;;;;;4216311;28;20044;-54
2023/06/07 09:50:09;;;;;;;21.27;6.65;;;23.70;84.60;;;;;;4215272;28;20044;-55
2023/06/07 09:52:15;;;;;;;21.92;6.80;;;23.90;85.60;;;;;;4207405;28;20467;-51
2023/06/07 09:54:19;;;;;;;23.83;7.10;;;24.00;85.80;;;;;;4214960;28;20136;-52
2023/06/07 09:56:23;;;;;;;18.63;6.53;;;24.10;85.70;;;;;;4214786;28;20229;-66
2023/06/07 09:58:25;;;;;;;18.70;6.40;;;24.10;85.10;;;;;;4211928;28;20055;-52
2023/06/07 10:00:27;;;;;;;17.38;6.97;;;24.10;83.80;;;;;;4214516;28;20398;-51
2023/06/07 10:02:30;;;;;;;18.55;6.70;;;24.20;84.40;;;;;;4214268;28;20440;-54
2023/06/07 10:04:37;;;;;;;19.90;7.07;;;24.30;85.00;;;;;;4197575;28;20087;-56
2023/06/07 10:06:49;;;;;;;23.33;7.13;;;24.30;84.60;;;;;;4213277;28;20054;-54
2023/06/07 10:08:55;;;;;;;18.38;6.63;;;24.50;84.70;;;;;;4215631;28;20383;-55
2023/06/07 10:10:59;;;;;;;22.55;5.93;;;24.60;84.70;;;;;;4215839;28;20052;-55
2023/06/07 10:13:04;;;;;;;12.18;5.97;;;24.70;84.50;;;;;;4214747;28;20501;-54
2023/06/07 10:15:09;;;;;;;10.43;6.00;;;24.70;83.30;;;;;;4214636;28;20508;-54
2023/06/07 10:17:13;;;;;;;;;;;24.70;83.50;;;;;;4214203;28;20048;-55
2023/06/07 10:19:18;;;;;;;19.05;6.38;;;24.90;84.10;;;;;;4214100;28;19955;-55
2023/06/07 10:21:30;;;;;;;20.23;7.38;;;24.90;83.90;;;;;;4214243;28;20048;-54
2023/06/07 10:23:38;;;;;;;15.93;6.30;;;25.00;83.80;;;;;;4214476;28;20127;-54
2023/06/07 10:25:45;;;;;;;12.13;6.55;;;24.90;83.00;;;;;;4214248;28;20387;-54
2023/06/07 10:27:55;;;;;;;13.55;5.53;;;24.80;83.60;;;;;;4212917;28;20109;-60
2023/06/07 10:30:02;;;;;;;14.75;5.82;;;24.90;83.60;;;;;;4214026;28;20476;-56